Time,TemperatureF,DewpointF,PressureIn,WindDirection,WindDirectionDegrees,WindSpeedMPH,WindSpeedGustMPH,Humidity,HourlyPrecipIn,Conditions,Clouds,dailyrainin,SolarRadiationWatts/m^2,SoftwareType,DateUTC
2013-06-11 00:03:00,62.0,61.0,-100.00,SSW,212,4.0,8.0,95,0.08,,,0.53,0.000000,,2013-06-11 04:03:00,
2013-06-11 00:34:00,62.0,61.0,-100.00,SW,229,4.0,5.0,97,0.00,,,0.53,0.000000,,2013-06-11 04:34:00,
2013-06-11 00:43:00,62.0,61.0,-100.00,SW,229,4.0,5.0,97,0.00,,,0.53,0.000000,,2013-06-11 04:43:00,
2013-06-11 00:53:00,62.0,61.0,-100.00,SW,229,4.0,5.0,97,0.00,,,0.53,0.000000,,2013-06-11 04:53:00,
2013-06-11 01:02:00,62.0,61.0,-100.00,SW,229,4.0,5.0,97,0.00,,,0.53,0.000000,,2013-06-11 05:02:00,
2013-06-11 01:32:00,62.0,61.0,-100.00,SSW,209,3.0,4.0,98,0.00,,,0.53,0.000000,,2013-06-11 05:32:00,
2013-06-11 01:42:00,62.0,61.0,-100.00,SSW,209,3.0,4.0,98,0.00,,,0.53,0.000000,,2013-06-11 05:42:00,
2013-06-11 01:52:00,62.0,61.0,-100.00,SSW,209,3.0,4.0,98,0.00,,,0.53,0.000000,,2013-06-11 05:52:00,
2013-06-11 02:02:00,62.0,61.0,-100.00,SSW,209,3.0,4.0,98,0.00,,,0.53,0.000000,,2013-06-11 06:02:00,
2013-06-11 02:32:00,62.0,62.0,-100.00,SW,225,6.0,11.0,99,0.00,,,0.53,0.000000,,2013-06-11 06:32:00,
2013-06-11 02:42:00,62.0,62.0,-100.00,SW,225,6.0,11.0,99,0.00,,,0.53,0.000000,,2013-06-11 06:42:00,
2013-06-11 02:52:00,62.0,62.0,-100.00,SW,225,6.0,11.0,99,0.00,,,0.53,0.000000,,2013-06-11 06:52:00,
2013-06-11 03:02:00,62.0,62.0,-100.00,SW,225,6.0,11.0,99,0.00,,,0.53,0.000000,,2013-06-11 07:02:00,
2013-06-11 03:32:00,61.0,60.0,-100.00,SW,236,4.0,7.0,98,0.00,,,0.53,0.000000,,2013-06-11 07:32:00,
2013-06-11 03:42:00,61.0,60.0,-100.00,SW,236,4.0,7.0,98,0.00,,,0.53,0.000000,,2013-06-11 07:42:00,
2013-06-11 03:52:00,61.0,60.0,-100.00,SW,236,4.0,7.0,98,0.00,,,0.53,0.000000,,2013-06-11 07:52:00,
2013-06-11 04:02:00,61.0,60.0,-100.00,SW,236,4.0,7.0,98,0.00,,,0.53,0.000000,,2013-06-11 08:02:00,
2013-06-11 04:32:00,61.0,60.0,-100.00,WSW,237,4.0,10.0,97,0.00,,,0.53,0.000000,,2013-06-11 08:32:00,
2013-06-11 04:42:00,61.0,60.0,-100.00,WSW,237,4.0,10.0,97,0.00,,,0.53,0.000000,,2013-06-11 08:42:00,
2013-06-11 04:52:00,61.0,60.0,-100.00,WSW,237,4.0,10.0,97,0.00,,,0.53,0.000000,,2013-06-11 08:52:00,
2013-06-11 05:02:00,61.0,60.0,-100.00,WSW,237,4.0,10.0,97,0.00,,,0.53,0.000000,,2013-06-11 09:02:00,
2013-06-11 05:33:00,61.0,60.0,-100.00,WSW,251,5.0,9.0,97,0.00,,,0.53,0.000000,,2013-06-11 09:33:00,
2013-06-11 05:43:00,61.0,60.0,-100.00,WSW,251,5.0,9.0,97,0.00,,,0.53,0.000000,,2013-06-11 09:43:00,
2013-06-11 05:53:00,61.0,60.0,-100.00,WSW,251,5.0,9.0,97,0.00,,,0.53,0.000000,,2013-06-11 09:53:00,
2013-06-11 06:03:00,61.0,60.0,-100.00,WSW,251,5.0,9.0,97,0.00,,,0.53,0.000000,,2013-06-11 10:03:00,
2013-06-11 06:33:00,60.0,59.0,-100.00,WSW,245,5.0,7.0,98,0.00,,,0.52,0.000000,,2013-06-11 10:33:00,
2013-06-11 06:43:00,60.0,59.0,-100.00,WSW,245,5.0,7.0,98,0.00,,,0.52,0.000000,,2013-06-11 10:43:00,
2013-06-11 06:52:00,60.0,59.0,-100.00,WSW,245,5.0,7.0,98,0.00,,,0.52,0.000000,,2013-06-11 10:52:00,
2013-06-11 07:02:00,60.0,59.0,-100.00,WSW,245,5.0,7.0,98,0.00,,,0.52,0.000000,,2013-06-11 11:02:00,
2013-06-11 07:32:00,61.0,60.0,-100.00,SW,230,5.0,8.0,98,0.25,,,-99.99,14.000000,,2013-06-11 11:32:00,
2013-06-11 07:42:00,61.0,60.0,-100.00,SW,230,5.0,8.0,98,0.25,,,-99.99,14.000000,,2013-06-11 11:42:00,
2013-06-11 07:52:00,61.0,60.0,-100.00,SW,230,5.0,8.0,98,0.25,,,-99.99,14.000000,,2013-06-11 11:52:00,
2013-06-11 08:02:00,61.0,60.0,-100.00,SW,230,5.0,8.0,98,0.25,,,-99.99,14.000000,,2013-06-11 12:02:00,
2013-06-11 08:32:00,61.0,60.0,-100.00,WSW,246,5.0,11.0,98,0.08,,,-99.99,22.000000,,2013-06-11 12:32:00,
2013-06-11 08:42:00,61.0,60.0,-100.00,WSW,246,5.0,11.0,98,0.08,,,-99.99,22.000000,,2013-06-11 12:42:00,
2013-06-11 08:52:00,61.0,60.0,-100.00,WSW,246,5.0,11.0,98,0.08,,,-99.99,22.000000,,2013-06-11 12:52:00,
2013-06-11 09:02:00,61.0,60.0,-100.00,WSW,246,5.0,11.0,98,0.08,,,-99.99,22.000000,,2013-06-11 13:02:00,
2013-06-11 09:32:00,62.0,61.0,-100.00,WNW,291,5.0,7.0,98,0.02,,,-99.99,78.000000,,2013-06-11 13:32:00,
2013-06-11 09:42:00,62.0,61.0,-100.00,WNW,291,5.0,7.0,98,0.02,,,-99.99,78.000000,,2013-06-11 13:42:00,
2013-06-11 09:52:00,62.0,61.0,-100.00,WNW,291,5.0,7.0,98,0.02,,,-99.99,78.000000,,2013-06-11 13:52:00,
2013-06-11 10:02:00,62.0,61.0,-100.00,WNW,291,5.0,7.0,98,0.02,,,-99.99,78.000000,,2013-06-11 14:02:00,
2013-06-11 10:32:00,62.0,61.0,-100.00,WNW,285,5.0,14.0,96,0.00,,,0.75,122.000000,,2013-06-11 14:32:00,
2013-06-11 10:42:00,62.0,61.0,-100.00,WNW,285,5.0,14.0,96,0.00,,,0.75,122.000000,,2013-06-11 14:42:00,
2013-06-11 10:53:00,62.0,61.0,-100.00,WNW,285,5.0,14.0,96,0.00,,,0.75,122.000000,,2013-06-11 14:53:00,
2013-06-11 11:02:00,62.0,61.0,-100.00,WNW,285,5.0,14.0,96,0.00,,,0.75,122.000000,,2013-06-11 15:02:00,
2013-06-11 11:33:00,62.0,60.0,-100.00,WNW,292,5.0,9.0,94,0.00,,,0.71,159.000000,,2013-06-11 15:33:00,
2013-06-11 11:43:00,62.0,60.0,-100.00,WNW,292,5.0,9.0,94,0.00,,,0.71,159.000000,,2013-06-11 15:43:00,
2013-06-11 11:53:00,62.0,60.0,-100.00,WNW,292,5.0,9.0,94,0.00,,,0.71,159.000000,,2013-06-11 15:53:00,
2013-06-11 12:03:00,62.0,60.0,-100.00,WNW,292,5.0,9.0,94,0.00,,,0.71,159.000000,,2013-06-11 16:03:00,
2013-06-11 12:33:00,63.0,61.0,-100.00,WNW,291,5.0,10.0,92,0.00,,,0.68,214.000000,,2013-06-11 16:33:00,
2013-06-11 12:42:00,63.0,61.0,-100.00,WNW,291,5.0,10.0,92,0.00,,,0.68,214.000000,,2013-06-11 16:42:00,
2013-06-11 12:53:00,63.0,61.0,-100.00,WNW,291,5.0,10.0,92,0.00,,,0.68,214.000000,,2013-06-11 16:53:00,
2013-06-11 13:02:00,63.0,61.0,-100.00,WNW,291,5.0,10.0,92,0.00,,,0.68,214.000000,,2013-06-11 17:02:00,
2013-06-11 13:32:00,65.0,61.0,-100.00,WNW,286,6.0,12.0,88,0.00,,,0.68,319.000000,,2013-06-11 17:32:00,
2013-06-11 13:43:00,65.0,61.0,-100.00,WNW,286,6.0,12.0,88,0.00,,,0.68,319.000000,,2013-06-11 17:43:00,
2013-06-11 13:53:00,65.0,61.0,-100.00,WNW,286,6.0,12.0,88,0.00,,,0.68,319.000000,,2013-06-11 17:53:00,
2013-06-11 14:02:00,65.0,61.0,-100.00,WNW,286,6.0,12.0,88,0.00,,,0.68,319.000000,,2013-06-11 18:02:00,
2013-06-11 14:33:00,65.0,61.0,-100.00,WNW,283,6.0,12.0,86,0.00,,,0.55,295.000000,,2013-06-11 18:33:00,
2013-06-11 14:43:00,65.0,61.0,-100.00,WNW,283,6.0,12.0,86,0.00,,,0.55,295.000000,,2013-06-11 18:43:00,
2013-06-11 14:52:00,65.0,61.0,-100.00,WNW,283,6.0,12.0,86,0.00,,,0.55,295.000000,,2013-06-11 18:52:00,
2013-06-11 15:02:00,65.0,61.0,-100.00,WNW,283,6.0,12.0,86,0.00,,,0.55,295.000000,,2013-06-11 19:02:00,
2013-06-11 15:33:00,67.0,61.0,-100.00,WNW,295,6.0,13.0,80,0.00,,,0.54,350.000000,,2013-06-11 19:33:00,
2013-06-11 15:42:00,67.0,61.0,-100.00,WNW,295,6.0,13.0,80,0.00,,,0.54,350.000000,,2013-06-11 19:42:00,
2013-06-11 15:53:00,67.0,61.0,-100.00,WNW,295,6.0,13.0,80,0.00,,,0.54,350.000000,,2013-06-11 19:53:00,
2013-06-11 16:03:00,67.0,61.0,-100.00,WNW,295,6.0,13.0,80,0.00,,,0.54,350.000000,,2013-06-11 20:03:00,
2013-06-11 16:32:00,64.0,60.0,-100.00,WNW,296,9.0,18.0,86,0.00,,,0.53,210.000000,,2013-06-11 20:32:00,
2013-06-11 16:42:00,64.0,60.0,-100.00,WNW,296,9.0,18.0,86,0.00,,,0.53,210.000000,,2013-06-11 20:42:00,
2013-06-11 16:52:00,64.0,60.0,-100.00,WNW,296,9.0,18.0,86,0.00,,,0.53,210.000000,,2013-06-11 20:52:00,
2013-06-11 17:02:00,64.0,60.0,-100.00,WNW,296,9.0,18.0,86,0.00,,,0.53,210.000000,,2013-06-11 21:02:00,
2013-06-11 17:33:00,64.0,61.0,-100.00,WNW,287,5.0,10.0,90,0.00,,,0.44,233.000000,,2013-06-11 21:33:00,
2013-06-11 17:42:00,64.0,61.0,-100.00,WNW,287,5.0,10.0,90,0.00,,,0.44,233.000000,,2013-06-11 21:42:00,
2013-06-11 17:53:00,64.0,61.0,-100.00,WNW,287,5.0,10.0,90,0.00,,,0.44,233.000000,,2013-06-11 21:53:00,
2013-06-11 18:03:00,64.0,61.0,-100.00,WNW,287,5.0,10.0,90,0.00,,,0.44,233.000000,,2013-06-11 22:03:00,
2013-06-11 18:33:00,64.0,60.0,-100.00,WNW,292,5.0,10.0,87,0.00,,,0.43,173.000000,,2013-06-11 22:33:00,
2013-06-11 18:42:00,64.0,60.0,-100.00,WNW,292,5.0,10.0,87,0.00,,,0.43,173.000000,,2013-06-11 22:42:00,
2013-06-11 18:52:00,64.0,60.0,-100.00,WNW,292,5.0,10.0,87,0.00,,,0.43,173.000000,,2013-06-11 22:52:00,
2013-06-11 19:02:00,64.0,60.0,-100.00,WNW,292,5.0,10.0,87,0.00,,,0.43,173.000000,,2013-06-11 23:02:00,
2013-06-11 19:32:00,64.0,60.0,-100.00,WNW,285,5.0,11.0,87,0.00,,,0.43,134.000000,,2013-06-11 23:32:00,
2013-06-11 19:42:00,64.0,60.0,-100.00,WNW,285,5.0,11.0,87,0.00,,,0.43,134.000000,,2013-06-11 23:42:00,
2013-06-11 19:52:00,64.0,60.0,-100.00,WNW,285,5.0,11.0,87,0.00,,,0.43,134.000000,,2013-06-11 23:52:00,
2013-06-11 20:02:00,64.0,60.0,-100.00,WNW,285,5.0,11.0,87,0.00,,,0.43,134.000000,,2013-06-12 00:02:00,
2013-06-11 20:32:00,63.0,60.0,-100.00,WNW,282,4.0,8.0,89,0.00,,,0.43,63.000000,,2013-06-12 00:32:00,
2013-06-11 20:42:00,63.0,60.0,-100.00,WNW,282,4.0,8.0,89,0.00,,,0.43,63.000000,,2013-06-12 00:42:00,
2013-06-11 20:52:00,63.0,60.0,-100.00,WNW,282,4.0,8.0,89,0.00,,,0.43,63.000000,,2013-06-12 00:52:00,
2013-06-11 21:02:00,63.0,60.0,-100.00,WNW,282,4.0,8.0,89,0.00,,,0.43,63.000000,,2013-06-12 01:02:00,
2013-06-11 21:32:00,62.0,60.0,-100.00,WNW,286,3.0,4.0,94,0.00,,,0.43,10.000000,,2013-06-12 01:32:00,
2013-06-11 21:42:00,62.0,60.0,-100.00,WNW,286,3.0,4.0,94,0.00,,,0.43,10.000000,,2013-06-12 01:42:00,
2013-06-11 21:52:00,62.0,60.0,-100.00,WNW,286,3.0,4.0,94,0.00,,,0.43,10.000000,,2013-06-12 01:52:00,
2013-06-11 22:02:00,62.0,60.0,-100.00,WNW,286,3.0,4.0,94,0.00,,,0.43,10.000000,,2013-06-12 02:02:00,
2013-06-11 22:32:00,60.0,59.0,-100.00,WNW,299,0.0,2.0,98,0.00,,,0.43,0.000000,,2013-06-12 02:32:00,
2013-06-11 22:42:00,60.0,59.0,-100.00,WNW,299,0.0,2.0,98,0.00,,,0.43,0.000000,,2013-06-12 02:42:00,
2013-06-11 22:52:00,60.0,59.0,-100.00,WNW,299,0.0,2.0,98,0.00,,,0.43,0.000000,,2013-06-12 02:52:00,
2013-06-11 23:02:00,60.0,59.0,-100.00,WNW,299,0.0,2.0,98,0.00,,,0.43,0.000000,,2013-06-12 03:02:00,
2013-06-11 23:33:00,59.0,59.0,-100.00,West,276,0.0,0.0,99,0.00,,,0.35,0.000000,,2013-06-12 03:33:00,
2013-06-11 23:43:00,59.0,59.0,-100.00,West,276,0.0,0.0,99,0.00,,,0.35,0.000000,,2013-06-12 03:43:00,
2013-06-11 23:53:00,59.0,59.0,-100.00,West,276,0.0,0.0,99,0.00,,,0.35,0.000000,,2013-06-12 03:53:00,